F/V Matmaco — FVNS — position and weather

sailwx.info

Track history (hours):
 
Tides and Currents Weather Stations Pressure Air Temp Water Temp Dewpoint Dewpoint Depression Visibility Wind Speed Wind Dir Waves Ship Positions

F/V Matmaco

Last reported at 2017-Feb-20 02:12 UTC. Time now 2017-Feb-21 05:29 UTC.
Position N 47°08' W 002°36'.

Length 20 m.

Type: Other ship. MMSI: 228194000.

Date/timePositionNaut miles runAvg speedWind from/ knotsBaromVisibWave heightAir tempDewpointWater temp
2017-Feb-20 02:12N 47°08' W 002°36'6 9.0
2017-Feb-20 01:33N 47°14' W 002°35'5 5.3
2017-Feb-20 00:33N 47°18' W 002°31'1 0.0
2017-Feb-18 02:04N 47°18' W 002°31'0 0.0
2017-Feb-18 01:33N 47°18' W 002°31'0 0.0
2017-Feb-18 00:34N 47°18' W 002°31'0 0.0
2017-Feb-17 23:33N 47°18' W 002°31'2 2.0
2017-Feb-17 22:34N 47°19' W 002°33'9 9.2
2017-Feb-17 21:33N 47°11' W 002°40'9 9.2
2017-Feb-17 20:33N 47°03' W 002°47'20 9.6
2017-Feb-17 18:27N 46°46' W 003°03'4 4.6
2017-Feb-17 17:33N 46°42' W 003°06'4 3.7
2017-Feb-17 16:27N 46°39' W 003°08'3 3.6
2017-Feb-17 15:33N 46°35' W 003°07'2 1.2
2017-Feb-17 13:30N 46°37' W 003°10'2 1.6
2017-Feb-17 12:33N 46°37' W 003°12'4 3.5
2017-Feb-17 11:33N 46°34' W 003°11'4 3.6
2017-Feb-17 10:18N 46°30' W 003°08'14 2.8
2017-Feb-17 05:22N 46°42' W 003°17'2 2.9
2017-Feb-17 04:33N 46°41' W 003°20'4 3.7
2017-Feb-17 03:24N 46°38' W 003°25'3 3.6
2017-Feb-17 02:33N 46°36' W 003°28'12 5.1
2017-Feb-17 00:12N 46°36' W 003°45'10 2.7
2017-Feb-16 20:27N 46°38' W 003°31'27 1.4
2017-Feb-16 00:27N 46°55' W 002°60'8 9.4
2017-Feb-15 23:33N 47°02' W 002°52'10 9.6
2017-Feb-15 22:33N 47°10' W 002°44'9 9.5
2017-Feb-15 21:33N 47°17' W 002°36'3 0.2
2017-Feb-15 04:32N 47°18' W 002°31'0 0.0
2017-Feb-15 03:33N 47°18' W 002°31'3 2.6
2017-Feb-15 02:31N 47°18' W 002°35'10 9.4
2017-Feb-15 01:27N 47°09' W 002°42'25 8.4
2017-Feb-14 22:27N 46°48' W 003°01'2 2.2
2017-Feb-14 21:21N 46°48' W 003°04'4 3.2
2017-Feb-14 20:03N 46°48' W 003°10'  
2017-Feb-12 09:18N 47°04' W 003°11'3 3.4
2017-Feb-12 08:33N 47°05' W 003°08'3 2.8
2017-Feb-12 07:33N 47°07' W 003°05'3 3.3
2017-Feb-12 06:33N 47°07' W 003°01'3 3.3
2017-Feb-12 05:33N 47°04' W 002°58'3 3.0
2017-Feb-12 04:33N 47°04' W 002°53'6 6.0
2017-Feb-12 03:33N 47°08' W 002°47'8 8.3
2017-Feb-12 02:33N 47°14' W 002°38'7 6.3
2017-Feb-12 01:31N 47°19' W 002°32'1 0.1
2017-Feb-11 07:12N 47°18' W 002°31'0 0.0
2017-Feb-11 06:29N 47°18' W 002°31'0 0.1
2017-Feb-11 05:26N 47°18' W 002°31'0 0.0
2017-Feb-11 04:27N 47°18' W 002°31'0 0.0
2017-Feb-11 02:22N 47°18' W 002°31'1 1.6
2017-Feb-11 01:33N 47°19' W 002°32'9 9.2
2017-Feb-11 00:33N 47°12' W 002°41'10 9.7
2017-Feb-10 23:33N 47°05' W 002°51'  
Track history (hours):
 
Tides and Currents Weather Stations Pressure Air Temp Water Temp Dewpoint Dewpoint Depression Visibility Wind Speed Wind Dir Waves Ship Positions

F/V Matmaco

Last reported at 2017-Feb-20 02:12 UTC. Time now 2017-Feb-21 05:29 UTC.
Position N 47°08' W 002°36'.

Length 20 m.

Type: Other ship. MMSI: 228194000.

Date/timePositionNaut miles runAvg speedWind from/ knotsBaromVisibWave heightAir tempDewpointWater temp
2017-Feb-20 02:12N 47°08' W 002°36'6 9.0
2017-Feb-20 01:33N 47°14' W 002°35'5 5.3
2017-Feb-20 00:33N 47°18' W 002°31'1 0.0
2017-Feb-18 02:04N 47°18' W 002°31'0 0.0
2017-Feb-18 01:33N 47°18' W 002°31'0 0.0
2017-Feb-18 00:34N 47°18' W 002°31'0 0.0
2017-Feb-17 23:33N 47°18' W 002°31'2 2.0
2017-Feb-17 22:34N 47°19' W 002°33'9 9.2
2017-Feb-17 21:33N 47°11' W 002°40'9 9.2
2017-Feb-17 20:33N 47°03' W 002°47'20 9.6
2017-Feb-17 18:27N 46°46' W 003°03'4 4.6
2017-Feb-17 17:33N 46°42' W 003°06'4 3.7
2017-Feb-17 16:27N 46°39' W 003°08'3 3.6
2017-Feb-17 15:33N 46°35' W 003°07'2 1.2
2017-Feb-17 13:30N 46°37' W 003°10'2 1.6
2017-Feb-17 12:33N 46°37' W 003°12'4 3.5
2017-Feb-17 11:33N 46°34' W 003°11'4 3.6
2017-Feb-17 10:18N 46°30' W 003°08'14 2.8
2017-Feb-17 05:22N 46°42' W 003°17'2 2.9
2017-Feb-17 04:33N 46°41' W 003°20'4 3.7
2017-Feb-17 03:24N 46°38' W 003°25'3 3.6
2017-Feb-17 02:33N 46°36' W 003°28'12 5.1
2017-Feb-17 00:12N 46°36' W 003°45'10 2.7
2017-Feb-16 20:27N 46°38' W 003°31'27 1.4
2017-Feb-16 00:27N 46°55' W 002°60'8 9.4
2017-Feb-15 23:33N 47°02' W 002°52'10 9.6
2017-Feb-15 22:33N 47°10' W 002°44'9 9.5
2017-Feb-15 21:33N 47°17' W 002°36'3 0.2
2017-Feb-15 04:32N 47°18' W 002°31'0 0.0
2017-Feb-15 03:33N 47°18' W 002°31'3 2.6
2017-Feb-15 02:31N 47°18' W 002°35'10 9.4
2017-Feb-15 01:27N 47°09' W 002°42'25 8.4
2017-Feb-14 22:27N 46°48' W 003°01'2 2.2
2017-Feb-14 21:21N 46°48' W 003°04'4 3.2
2017-Feb-14 20:03N 46°48' W 003°10'  
2017-Feb-12 09:18N 47°04' W 003°11'3 3.4
2017-Feb-12 08:33N 47°05' W 003°08'3 2.8
2017-Feb-12 07:33N 47°07' W 003°05'3 3.3
2017-Feb-12 06:33N 47°07' W 003°01'3 3.3
2017-Feb-12 05:33N 47°04' W 002°58'3 3.0
2017-Feb-12 04:33N 47°04' W 002°53'6 6.0
2017-Feb-12 03:33N 47°08' W 002°47'8 8.3
2017-Feb-12 02:33N 47°14' W 002°38'7 6.3
2017-Feb-12 01:31N 47°19' W 002°32'1 0.1
2017-Feb-11 07:12N 47°18' W 002°31'0 0.0
2017-Feb-11 06:29N 47°18' W 002°31'0 0.1
2017-Feb-11 05:26N 47°18' W 002°31'0 0.0
2017-Feb-11 04:27N 47°18' W 002°31'0 0.0
2017-Feb-11 02:22N 47°18' W 002°31'1 1.6
2017-Feb-11 01:33N 47°19' W 002°32'9 9.2
2017-Feb-11 00:33N 47°12' W 002°41'10 9.7
2017-Feb-10 23:33N 47°05' W 002°51'  

Dump ship's entire track history